Portada
METAR-TAF:

METAR-TAF

Aeroports :

Ahwaz, Iran

latitud: 31-20N, longitud: 048-40E, altitud: 20 m

Observació

L'informe es va fer fa 37 minuts, a les 05:00 UTC
Vent 4 kt del Oest/Nord-Oest
Temperatura 7°C
Humitat 81%
Pressió 1023 hPa
Visibilitat: 7000 m

METAR: OIAW 270500Z 29004KT 7000 NSC 07/04 Q1023

Hora: 09:07 (05:37 UTC)

Pronòstic

L'informe es va fer fa 6 hores i 37 minuts, a les 23:00 UTC
Pronòstic vàlid del 27 a les 00 UTC al 28 a les 06 UTC
Vent 8 kt del Oest
Visibilitat: 4000 m
Núvols disperses a una alçada de 2000 ft
boirina
Evolucionant progressivament
l' 27 a les 06 UTC al 27 a les 08 UTC
Visibilitat: 7000 m
Evolucionant progressivament
l' 27 a les 14 UTC al 27 a les 16 UTC
Visibilitat: 3000 m
boirina

TAF: OIAW 262300Z 2700/2806 28008KT 4000 BR SCT020 BECMG 2706/2708 7000 NSC BECMG 2714/2716 3000 BR NSC

Observacions i pronòstics meteorològics de més de 4000 aeroports (METAR i TAF).

Les estacions disponibles són els punts grocs i vermells al mapa.

Posi el ratolí al punt desitjat per veure el nom de l'estació.

Feu clic per veure les observacions i els pronòstics meteorològics.

Per canviar el mapa: feu clic els botons verds amb una creu de color negre per apropar; al botó verd amb un guió per allunyar la imatge; o en les fletxes verdes per a mapes adjacents.


METAR-TAF: